Decoded Metar for LIBF (FOGGIA in ITALY) (IATA:FOG) | Meteo·Mobile Aviation Weather
aviador You're here:

LIBF Decoded Metar

FOGGIA in ITALY
Report Time2018-09-18 14:50:00
UTC Time2018-09-18 15:51:33
Flight Rules vfr VFR
Wind070° at 08 kt
W.Decomp.*RWY 15: 1.1 kt HW 7.9 kt LCW
W.Rank070° ranks 11
Current wind is above 070° avg. (7.6)
Visibility9999 m
Phenomena:N/A
Clouds:Scattered 040 Hf
Expected CloudBase > 4,800 ft AGL from Temp-Dew spread
CeilingNone
Temp28°C (ISA +14)
Dew Point16°C (48% RH)
Heat Index28.3°C
AAT27.1°C
QNH1017 hPa
Density Alt1,926 ft
Elevation262 ft
Report Wrong Elevation
Raw Report
METAR LIBF 181450Z 07008KT 040V110 9999 SCT040 28/16 Q1017=

Extra information for LIBF:More info

Metar Taf Metar & Taf Last 4 Metars F.Rules Stats Wind Profile Meteogram Temp Stats Airport Information Weather charts Add Link Nearby VenuesMetar ALERT Operation Metar Decoded Social comments